sensor_id;sensor_type;location;lat;lon;timestamp;P1;P2;P0
49343;PMS5003;35210;41.606;-87.602;2023-04-03T00:01:12;3.20;3.20;2.00
49343;PMS5003;35210;41.606;-87.602;2023-04-03T00:03:41;3.00;3.00;2.00
49343;PMS5003;35210;41.606;-87.602;2023-04-03T00:06:10;4.00;3.80;2.00
49343;PMS5003;35210;41.606;-87.602;2023-04-03T00:08:39;3.20;3.20;2.00
49343;PMS5003;35210;41.606;-87.602;2023-04-03T00:11:08;7.40;4.20;3.00
49343;PMS5003;35210;41.606;-87.602;2023-04-03T00:13:39;5.00;5.00;2.00
49343;PMS5003;35210;41.606;-87.602;2023-04-03T00:16:07;4.00;4.00;2.00
49343;PMS5003;35210;41.606;-87.602;2023-04-03T00:18:37;3.80;3.00;2.20
49343;PMS5003;35210;41.606;-87.602;2023-04-03T00:21:06;5.00;3.80;3.00
49343;PMS5003;35210;41.606;-87.602;2023-04-03T00:23:36;4.20;4.00;2.00
49343;PMS5003;35210;41.606;-87.602;2023-04-03T00:26:04;4.40;3.20;1.00
49343;PMS5003;35210;41.606;-87.602;2023-04-03T00:28:32;4.20;4.20;2.00
49343;PMS5003;35210;41.606;-87.602;2023-04-03T00:31:03;4.60;4.60;2.80
49343;PMS5003;35210;41.606;-87.602;2023-04-03T00:33:31;3.60;3.60;2.40
49343;PMS5003;35210;41.606;-87.602;2023-04-03T00:36:05;2.80;2.80;2.20
49343;PMS5003;35210;41.606;-87.602;2023-04-03T00:38:34;3.60;3.20;1.60
49343;PMS5003;35210;41.606;-87.602;2023-04-03T00:41:02;3.00;3.00;2.20
49343;PMS5003;35210;41.606;-87.602;2023-04-03T00:43:31;4.80;4.80;2.00
49343;PMS5003;35210;41.606;-87.602;2023-04-03T00:46:00;4.40;4.40;3.00
49343;PMS5003;35210;41.606;-87.602;2023-04-03T00:48:33;5.40;4.00;3.00
49343;PMS5003;35210;41.606;-87.602;2023-04-03T00:51:07;4.00;3.60;2.00
49343;PMS5003;35210;41.606;-87.602;2023-04-03T00:53:41;2.80;2.80;2.00
49343;PMS5003;35210;41.606;-87.602;2023-04-03T00:56:13;3.60;2.60;2.00
49343;PMS5003;35210;41.606;-87.602;2023-04-03T00:58:46;2.60;2.60;2.40
49343;PMS5003;35210;41.606;-87.602;2023-04-03T01:01:20;4.00;4.00;2.00
49343;PMS5003;35210;41.606;-87.602;2023-04-03T01:03:51;4.00;3.20;1.00
49343;PMS5003;35210;41.606;-87.602;2023-04-03T01:06:20;4.00;3.40;2.00
49343;PMS5003;35210;41.606;-87.602;2023-04-03T01:08:51;3.80;3.80;2.00
49343;PMS5003;35210;41.606;-87.602;2023-04-03T01:11:20;5.00;4.40;3.00
49343;PMS5003;35210;41.606;-87.602;2023-04-03T01:13:48;4.80;4.00;2.60
49343;PMS5003;35210;41.606;-87.602;2023-04-03T01:16:17;4.00;4.00;3.00
49343;PMS5003;35210;41.606;-87.602;2023-04-03T01:18:47;5.00;5.00;3.00
49343;PMS5003;35210;41.606;-87.602;2023-04-03T01:24:31;4.00;4.00;2.00
49343;PMS5003;35210;41.606;-87.602;2023-04-03T01:27:02;2.80;2.80;2.00
49343;PMS5003;35210;41.606;-87.602;2023-04-03T01:29:32;4.00;4.00;2.60
49343;PMS5003;35210;41.606;-87.602;2023-04-03T01:32:03;3.20;3.20;2.00
49343;PMS5003;35210;41.606;-87.602;2023-04-03T01:34:31;4.80;4.80;3.00
49343;PMS5003;35210;41.606;-87.602;2023-04-03T01:36:59;6.00;3.80;3.00
49343;PMS5003;35210;41.606;-87.602;2023-04-03T01:39:27;5.60;3.00;2.00
49343;PMS5003;35210;41.606;-87.602;2023-04-03T01:41:55;4.40;4.40;3.00
49343;PMS5003;35210;41.606;-87.602;2023-04-03T01:44:24;4.00;4.00;2.20
49343;PMS5003;35210;41.606;-87.602;2023-04-03T01:46:52;5.80;5.20;3.00
49343;PMS5003;35210;41.606;-87.602;2023-04-03T01:49:22;5.80;5.80;3.00
49343;PMS5003;35210;41.606;-87.602;2023-04-03T01:51:50;5.20;3.60;3.00
49343;PMS5003;35210;41.606;-87.602;2023-04-03T01:54:18;3.60;2.40;2.00
49343;PMS5003;35210;41.606;-87.602;2023-04-03T01:56:46;3.80;3.80;2.00
49343;PMS5003;35210;41.606;-87.602;2023-04-03T01:59:15;4.00;4.00;2.00
49343;PMS5003;35210;41.606;-87.602;2023-04-03T02:01:44;6.20;5.20;4.00
49343;PMS5003;35210;41.606;-87.602;2023-04-03T02:04:13;5.00;5.00;3.00
49343;PMS5003;35210;41.606;-87.602;2023-04-03T02:06:43;4.00;4.00;2.40
49343;PMS5003;35210;41.606;-87.602;2023-04-03T02:09:11;7.00;4.20;3.00
49343;PMS5003;35210;41.606;-87.602;2023-04-03T02:11:40;6.20;5.00;3.00
49343;PMS5003;35210;41.606;-87.602;2023-04-03T02:14:08;4.40;4.40;2.40
49343;PMS5003;35210;41.606;-87.602;2023-04-03T02:16:36;5.00;4.00;3.00
49343;PMS5003;35210;41.606;-87.602;2023-04-03T02:19:04;4.80;4.00;3.00
49343;PMS5003;35210;41.606;-87.602;2023-04-03T02:21:32;2.20;2.20;1.00
49343;PMS5003;35210;41.606;-87.602;2023-04-03T02:24:03;7.20;4.20;3.00
49343;PMS5003;35210;41.606;-87.602;2023-04-03T02:26:31;2.80;2.80;2.00
49343;PMS5003;35210;41.606;-87.602;2023-04-03T02:28:59;3.00;3.00;2.00
49343;PMS5003;35210;41.606;-87.602;2023-04-03T02:31:28;4.40;4.00;2.00
49343;PMS5003;35210;41.606;-87.602;2023-04-03T02:33:56;6.60;5.00;2.20
49343;PMS5003;35210;41.606;-87.602;2023-04-03T02:36:24;7.40;6.40;3.20
49343;PMS5003;35210;41.606;-87.602;2023-04-03T02:38:52;4.40;4.40;2.00
49343;PMS5003;35210;41.606;-87.602;2023-04-03T02:41:22;3.80;3.80;3.00
49343;PMS5003;35210;41.606;-87.602;2023-04-03T02:43:51;5.40;4.00;2.00
49343;PMS5003;35210;41.606;-87.602;2023-04-03T02:46:19;4.80;4.00;3.00
49343;PMS5003;35210;41.606;-87.602;2023-04-03T02:48:47;4.80;3.00;2.00
49343;PMS5003;35210;41.606;-87.602;2023-04-03T02:51:15;6.80;5.20;2.40
49343;PMS5003;35210;41.606;-87.602;2023-04-03T02:53:44;1.80;1.80;0.00
49343;PMS5003;35210;41.606;-87.602;2023-04-03T02:56:12;6.00;4.60;2.80
49343;PMS5003;35210;41.606;-87.602;2023-04-03T02:58:42;3.80;3.80;2.20
49343;PMS5003;35210;41.606;-87.602;2023-04-03T03:01:10;7.40;6.20;3.60
49343;PMS5003;35210;41.606;-87.602;2023-04-03T03:03:38;4.00;4.00;2.40
49343;PMS5003;35210;41.606;-87.602;2023-04-03T03:06:07;7.00;6.00;3.80
49343;PMS5003;35210;41.606;-87.602;2023-04-03T03:08:36;4.60;4.60;4.00
49343;PMS5003;35210;41.606;-87.602;2023-04-03T03:11:05;6.80;4.40;3.00
49343;PMS5003;35210;41.606;-87.602;2023-04-03T03:13:33;7.20;5.20;3.00
49343;PMS5003;35210;41.606;-87.602;2023-04-03T03:16:05;4.80;4.00;3.00
49343;PMS5003;35210;41.606;-87.602;2023-04-03T03:18:33;5.40;5.40;3.20
49343;PMS5003;35210;41.606;-87.602;2023-04-03T03:21:02;4.60;4.60;3.00
49343;PMS5003;35210;41.606;-87.602;2023-04-03T03:23:31;5.60;4.40;3.60
49343;PMS5003;35210;41.606;-87.602;2023-04-03T03:26:00;5.40;4.80;4.00
49343;PMS5003;35210;41.606;-87.602;2023-04-03T03:28:31;3.00;3.00;2.00
49343;PMS5003;35210;41.606;-87.602;2023-04-03T03:30:59;6.00;4.60;3.40
49343;PMS5003;35210;41.606;-87.602;2023-04-03T03:33:29;5.80;5.00;3.00
49343;PMS5003;35210;41.606;-87.602;2023-04-03T03:35:59;3.00;3.00;1.40
49343;PMS5003;35210;41.606;-87.602;2023-04-03T03:38:27;5.00;4.80;2.60
49343;PMS5003;35210;41.606;-87.602;2023-04-03T03:40:56;4.80;4.80;2.80
49343;PMS5003;35210;41.606;-87.602;2023-04-03T03:43:24;4.00;4.00;2.60
49343;PMS5003;35210;41.606;-87.602;2023-04-03T03:45:52;4.60;4.20;3.00
49343;PMS5003;35210;41.606;-87.602;2023-04-03T03:48:21;7.60;5.00;3.00
49343;PMS5003;35210;41.606;-87.602;2023-04-03T03:50:52;3.20;2.80;0.80
49343;PMS5003;35210;41.606;-87.602;2023-04-03T03:53:20;2.60;2.20;0.80
49343;PMS5003;35210;41.606;-87.602;2023-04-03T03:55:49;3.60;3.60;2.00
49343;PMS5003;35210;41.606;-87.602;2023-04-03T03:58:17;4.20;4.00;2.20
49343;PMS5003;35210;41.606;-87.602;2023-04-03T04:00:45;3.00;3.00;2.00
49343;PMS5003;35210;41.606;-87.602;2023-04-03T04:03:14;5.60;5.40;2.60
49343;PMS5003;35210;41.606;-87.602;2023-04-03T04:05:42;5.60;5.60;2.20
49343;PMS5003;35210;41.606;-87.602;2023-04-03T04:08:12;4.20;4.20;2.80
49343;PMS5003;35210;41.606;-87.602;2023-04-03T04:10:40;3.00;3.00;1.00
49343;PMS5003;35210;41.606;-87.602;2023-04-03T04:13:08;5.00;5.00;3.00
49343;PMS5003;35210;41.606;-87.602;2023-04-03T04:15:36;5.40;4.00;3.00
49343;PMS5003;35210;41.606;-87.602;2023-04-03T04:18:04;6.20;5.00;2.20
49343;PMS5003;35210;41.606;-87.602;2023-04-03T04:20:32;5.60;4.00;3.00
49343;PMS5003;35210;41.606;-87.602;2023-04-03T04:23:00;5.40;4.40;3.00
49343;PMS5003;35210;41.606;-87.602;2023-04-03T04:25:30;3.40;3.40;1.00
49343;PMS5003;35210;41.606;-87.602;2023-04-03T04:27:58;7.40;4.00;2.60
49343;PMS5003;35210;41.606;-87.602;2023-04-03T04:30:26;4.80;4.80;3.20
49343;PMS5003;35210;41.606;-87.602;2023-04-03T04:32:55;3.40;3.00;2.00
49343;PMS5003;35210;41.606;-87.602;2023-04-03T04:35:25;4.00;4.00;2.80
49343;PMS5003;35210;41.606;-87.602;2023-04-03T04:37:53;6.00;6.00;3.20
49343;PMS5003;35210;41.606;-87.602;2023-04-03T04:40:21;5.40;5.40;3.00
49343;PMS5003;35210;41.606;-87.602;2023-04-03T04:42:52;6.80;5.20;2.20
49343;PMS5003;35210;41.606;-87.602;2023-04-03T04:45:21;7.40;4.80;3.00
49343;PMS5003;35210;41.606;-87.602;2023-04-03T04:47:49;4.40;4.40;2.00
49343;PMS5003;35210;41.606;-87.602;2023-04-03T04:50:18;3.40;3.00;1.40
49343;PMS5003;35210;41.606;-87.602;2023-04-03T04:52:46;3.00;3.00;2.00
49343;PMS5003;35210;41.606;-87.602;2023-04-03T04:55:15;5.60;4.00;2.20
49343;PMS5003;35210;41.606;-87.602;2023-04-03T04:57:43;6.20;4.00;2.40
49343;PMS5003;35210;41.606;-87.602;2023-04-03T05:00:13;5.00;3.80;2.40
49343;PMS5003;35210;41.606;-87.602;2023-04-03T05:02:42;3.00;3.00;2.00
49343;PMS5003;35210;41.606;-87.602;2023-04-03T05:05:11;7.20;4.80;2.00
49343;PMS5003;35210;41.606;-87.602;2023-04-03T05:07:40;3.40;3.40;2.20
49343;PMS5003;35210;41.606;-87.602;2023-04-03T05:10:08;3.40;3.40;2.00
49343;PMS5003;35210;41.606;-87.602;2023-04-03T05:12:37;5.00;5.00;3.00
49343;PMS5003;35210;41.606;-87.602;2023-04-03T05:15:06;3.40;3.40;2.40
49343;PMS5003;35210;41.606;-87.602;2023-04-03T05:17:36;4.00;4.00;2.00
49343;PMS5003;35210;41.606;-87.602;2023-04-03T05:20:05;2.80;2.80;2.00
49343;PMS5003;35210;41.606;-87.602;2023-04-03T05:22:34;4.00;4.00;3.00
49343;PMS5003;35210;41.606;-87.602;2023-04-03T05:25:02;6.80;5.60;2.20
49343;PMS5003;35210;41.606;-87.602;2023-04-03T05:27:31;3.00;2.60;2.00
49343;PMS5003;35210;41.606;-87.602;2023-04-03T05:29:59;4.80;4.80;3.00
49343;PMS5003;35210;41.606;-87.602;2023-04-03T05:32:27;4.00;4.00;2.00
49343;PMS5003;35210;41.606;-87.602;2023-04-03T05:34:56;6.00;3.00;3.00
49343;PMS5003;35210;41.606;-87.602;2023-04-03T05:37:24;4.00;4.00;2.00
49343;PMS5003;35210;41.606;-87.602;2023-04-03T05:39:53;7.40;4.00;2.00
49343;PMS5003;35210;41.606;-87.602;2023-04-03T05:42:22;5.00;5.00;2.80
49343;PMS5003;35210;41.606;-87.602;2023-04-03T05:44:50;3.00;2.40;1.80
49343;PMS5003;35210;41.606;-87.602;2023-04-03T05:47:18;6.00;4.20;2.20
49343;PMS5003;35210;41.606;-87.602;2023-04-03T05:49:46;7.40;5.00;3.00
49343;PMS5003;35210;41.606;-87.602;2023-04-03T05:52:20;3.20;3.20;2.00
49343;PMS5003;35210;41.606;-87.602;2023-04-03T05:54:52;6.00;6.00;4.80
49343;PMS5003;35210;41.606;-87.602;2023-04-03T05:57:20;10.00;7.80;5.40
49343;PMS5003;35210;41.606;-87.602;2023-04-03T05:59:48;6.20;5.40;3.00
49343;PMS5003;35210;41.606;-87.602;2023-04-03T06:02:18;9.60;9.60;7.00
49343;PMS5003;35210;41.606;-87.602;2023-04-03T06:04:47;10.40;10.40;6.60
49343;PMS5003;35210;41.606;-87.602;2023-04-03T06:07:16;6.00;5.00;4.00
49343;PMS5003;35210;41.606;-87.602;2023-04-03T06:09:48;7.80;7.80;5.60
49343;PMS5003;35210;41.606;-87.602;2023-04-03T06:12:17;6.00;6.00;4.00
49343;PMS5003;35210;41.606;-87.602;2023-04-03T06:14:45;5.00;4.60;3.60
49343;PMS5003;35210;41.606;-87.602;2023-04-03T06:17:14;5.60;4.40;3.00
49343;PMS5003;35210;41.606;-87.602;2023-04-03T06:19:43;6.00;5.00;3.40
49343;PMS5003;35210;41.606;-87.602;2023-04-03T06:22:11;6.60;5.40;3.20
49343;PMS5003;35210;41.606;-87.602;2023-04-03T06:24:41;10.20;5.40;2.40
49343;PMS5003;35210;41.606;-87.602;2023-04-03T06:27:10;3.20;3.20;2.00
49343;PMS5003;35210;41.606;-87.602;2023-04-03T06:29:38;4.00;4.00;2.00
49343;PMS5003;35210;41.606;-87.602;2023-04-03T06:32:06;4.00;4.00;2.40
49343;PMS5003;35210;41.606;-87.602;2023-04-03T06:34:34;5.00;4.00;2.20
49343;PMS5003;35210;41.606;-87.602;2023-04-03T06:37:02;6.00;6.00;4.00
49343;PMS5003;35210;41.606;-87.602;2023-04-03T06:39:30;4.40;3.80;2.40
49343;PMS5003;35210;41.606;-87.602;2023-04-03T06:42:00;4.40;3.20;2.20
49343;PMS5003;35210;41.606;-87.602;2023-04-03T06:44:28;2.20;2.20;1.60
49343;PMS5003;35210;41.606;-87.602;2023-04-03T06:46:56;2.80;2.80;2.00
49343;PMS5003;35210;41.606;-87.602;2023-04-03T06:49:24;5.00;4.20;2.40
49343;PMS5003;35210;41.606;-87.602;2023-04-03T06:51:52;4.80;3.00;2.00
49343;PMS5003;35210;41.606;-87.602;2023-04-03T06:54:20;4.80;4.80;3.00
49343;PMS5003;35210;41.606;-87.602;2023-04-03T06:56:49;5.60;5.00;2.40
49343;PMS5003;35210;41.606;-87.602;2023-04-03T06:59:19;5.80;5.80;3.60
49343;PMS5003;35210;41.606;-87.602;2023-04-03T07:01:47;3.60;3.00;2.00
49343;PMS5003;35210;41.606;-87.602;2023-04-03T07:04:15;4.60;4.20;2.60
49343;PMS5003;35210;41.606;-87.602;2023-04-03T07:06:44;3.40;3.00;1.00
49343;PMS5003;35210;41.606;-87.602;2023-04-03T07:09:13;4.40;4.00;3.00
49343;PMS5003;35210;41.606;-87.602;2023-04-03T07:11:41;3.80;3.80;2.00
49343;PMS5003;35210;41.606;-87.602;2023-04-03T07:14:09;2.60;2.60;2.00
49343;PMS5003;35210;41.606;-87.602;2023-04-03T07:16:39;5.00;5.00;2.60
49343;PMS5003;35210;41.606;-87.602;2023-04-03T07:19:07;4.60;4.60;2.40
49343;PMS5003;35210;41.606;-87.602;2023-04-03T07:21:35;5.00;5.00;3.00
49343;PMS5003;35210;41.606;-87.602;2023-04-03T07:24:03;4.80;4.40;3.00
49343;PMS5003;35210;41.606;-87.602;2023-04-03T07:26:32;4.00;4.00;2.20
49343;PMS5003;35210;41.606;-87.602;2023-04-03T07:29:00;7.60;6.00;3.20
49343;PMS5003;35210;41.606;-87.602;2023-04-03T07:31:29;5.20;4.20;2.20
49343;PMS5003;35210;41.606;-87.602;2023-04-03T07:33:58;5.20;5.00;4.00
49343;PMS5003;35210;41.606;-87.602;2023-04-03T07:36:26;5.00;4.20;2.60
49343;PMS5003;35210;41.606;-87.602;2023-04-03T07:38:54;5.80;5.80;3.00
49343;PMS5003;35210;41.606;-87.602;2023-04-03T07:41:23;6.20;5.00;3.00
49343;PMS5003;35210;41.606;-87.602;2023-04-03T07:43:51;6.00;4.80;3.00
49343;PMS5003;35210;41.606;-87.602;2023-04-03T07:46:20;3.00;3.00;3.00
49343;PMS5003;35210;41.606;-87.602;2023-04-03T07:48:48;6.40;5.40;3.60
49343;PMS5003;35210;41.606;-87.602;2023-04-03T07:51:18;6.00;6.00;3.60
49343;PMS5003;35210;41.606;-87.602;2023-04-03T07:53:46;6.40;4.60;3.00
49343;PMS5003;35210;41.606;-87.602;2023-04-03T07:56:14;5.60;5.60;2.80
49343;PMS5003;35210;41.606;-87.602;2023-04-03T07:58:42;5.60;4.60;2.60
49343;PMS5003;35210;41.606;-87.602;2023-04-03T08:01:10;4.00;4.00;3.00
49343;PMS5003;35210;41.606;-87.602;2023-04-03T08:03:39;3.40;3.40;2.40
49343;PMS5003;35210;41.606;-87.602;2023-04-03T08:06:07;6.00;6.00;3.00
49343;PMS5003;35210;41.606;-87.602;2023-04-03T08:08:38;5.40;5.40;2.80
49343;PMS5003;35210;41.606;-87.602;2023-04-03T08:11:06;5.00;5.00;3.00
49343;PMS5003;35210;41.606;-87.602;2023-04-03T08:13:34;4.00;4.00;2.40
49343;PMS5003;35210;41.606;-87.602;2023-04-03T08:16:09;7.00;6.00;3.80
49343;PMS5003;35210;41.606;-87.602;2023-04-03T08:18:39;4.40;4.40;1.00
49343;PMS5003;35210;41.606;-87.602;2023-04-03T08:21:07;6.80;6.00;3.20
49343;PMS5003;35210;41.606;-87.602;2023-04-03T08:23:39;4.80;4.80;3.00
49343;PMS5003;35210;41.606;-87.602;2023-04-03T08:26:09;6.60;6.00;4.00
49343;PMS5003;35210;41.606;-87.602;2023-04-03T08:28:38;4.00;4.00;2.60
49343;PMS5003;35210;41.606;-87.602;2023-04-03T08:31:07;10.60;7.40;4.60
49343;PMS5003;35210;41.606;-87.602;2023-04-03T08:33:38;7.60;5.40;3.20
49343;PMS5003;35210;41.606;-87.602;2023-04-03T08:36:07;5.20;5.20;4.00
49343;PMS5003;35210;41.606;-87.602;2023-04-03T08:38:45;7.40;5.00;3.00
49343;PMS5003;35210;41.606;-87.602;2023-04-03T08:41:14;4.60;4.60;3.00
49343;PMS5003;35210;41.606;-87.602;2023-04-03T08:43:58;6.00;6.00;4.00
49343;PMS5003;35210;41.606;-87.602;2023-04-03T08:46:35;5.00;5.00;3.60
49343;PMS5003;35210;41.606;-87.602;2023-04-03T08:49:17;7.60;6.40;4.00
49343;PMS5003;35210;41.606;-87.602;2023-04-03T08:51:51;6.60;5.40;3.00
49343;PMS5003;35210;41.606;-87.602;2023-04-03T08:54:24;6.80;6.80;4.00
49343;PMS5003;35210;41.606;-87.602;2023-04-03T08:56:57;6.00;6.00;4.20
49343;PMS5003;35210;41.606;-87.602;2023-04-03T08:59:30;7.40;4.60;3.00
49343;PMS5003;35210;41.606;-87.602;2023-04-03T09:02:02;5.60;5.60;4.00
49343;PMS5003;35210;41.606;-87.602;2023-04-03T09:04:40;6.40;5.40;4.00
49343;PMS5003;35210;41.606;-87.602;2023-04-03T09:07:11;6.20;6.00;3.60
49343;PMS5003;35210;41.606;-87.602;2023-04-03T09:09:46;8.40;6.40;4.00
49343;PMS5003;35210;41.606;-87.602;2023-04-03T09:12:17;3.60;3.40;2.00
49343;PMS5003;35210;41.606;-87.602;2023-04-03T09:14:54;7.20;6.00;4.60
49343;PMS5003;35210;41.606;-87.602;2023-04-03T09:17:31;6.20;5.00;3.00
49343;PMS5003;35210;41.606;-87.602;2023-04-03T09:20:15;5.60;5.60;3.00
49343;PMS5003;35210;41.606;-87.602;2023-04-03T09:22:49;9.80;6.00;3.00
49343;PMS5003;35210;41.606;-87.602;2023-04-03T09:25:20;8.00;7.00;4.20
49343;PMS5003;35210;41.606;-87.602;2023-04-03T09:27:50;7.80;6.80;4.00
49343;PMS5003;35210;41.606;-87.602;2023-04-03T09:30:20;9.20;9.20;4.00
49343;PMS5003;35210;41.606;-87.602;2023-04-03T09:32:50;6.40;6.40;4.20
49343;PMS5003;35210;41.606;-87.602;2023-04-03T09:35:21;5.80;5.80;3.00
49343;PMS5003;35210;41.606;-87.602;2023-04-03T09:37:52;8.80;6.00;4.60
49343;PMS5003;35210;41.606;-87.602;2023-04-03T09:40:31;6.80;6.00;4.40
49343;PMS5003;35210;41.606;-87.602;2023-04-03T09:45:48;8.40;7.20;4.60
49343;PMS5003;35210;41.606;-87.602;2023-04-03T09:48:18;8.40;6.00;4.00
49343;PMS5003;35210;41.606;-87.602;2023-04-03T09:50:56;7.80;5.00;3.80
49343;PMS5003;35210;41.606;-87.602;2023-04-03T09:53:27;6.60;5.20;3.00
49343;PMS5003;35210;41.606;-87.602;2023-04-03T09:55:59;5.80;4.20;3.00
49343;PMS5003;35210;41.606;-87.602;2023-04-03T09:58:29;9.20;7.20;4.60
49343;PMS5003;35210;41.606;-87.602;2023-04-03T10:01:01;8.00;8.00;5.00
49343;PMS5003;35210;41.606;-87.602;2023-04-03T10:03:30;7.20;6.00;4.00
49343;PMS5003;35210;41.606;-87.602;2023-04-03T10:06:00;9.00;8.00;4.00
49343;PMS5003;35210;41.606;-87.602;2023-04-03T10:08:30;7.80;7.40;3.60
49343;PMS5003;35210;41.606;-87.602;2023-04-03T10:11:11;4.40;4.40;3.40
49343;PMS5003;35210;41.606;-87.602;2023-04-03T10:13:51;10.00;7.80;4.00
49343;PMS5003;35210;41.606;-87.602;2023-04-03T10:16:23;11.00;7.40;4.00
49343;PMS5003;35210;41.606;-87.602;2023-04-03T10:18:57;10.00;6.80;4.80
49343;PMS5003;35210;41.606;-87.602;2023-04-03T10:21:39;10.40;9.40;5.00
49343;PMS5003;35210;41.606;-87.602;2023-04-03T10:24:13;9.00;9.00;5.00
49343;PMS5003;35210;41.606;-87.602;2023-04-03T10:26:50;8.00;8.00;5.00
49343;PMS5003;35210;41.606;-87.602;2023-04-03T10:29:27;11.60;10.80;8.00
49343;PMS5003;35210;41.606;-87.602;2023-04-03T10:32:10;10.60;10.60;6.20
49343;PMS5003;35210;41.606;-87.602;2023-04-03T10:34:52;13.20;12.00;6.00
49343;PMS5003;35210;41.606;-87.602;2023-04-03T10:37:30;9.40;9.40;5.00
49343;PMS5003;35210;41.606;-87.602;2023-04-03T10:40:09;12.00;12.00;8.00
49343;PMS5003;35210;41.606;-87.602;2023-04-03T10:42:44;11.60;10.60;7.80
49343;PMS5003;35210;41.606;-87.602;2023-04-03T10:45:21;12.40;10.40;6.00
49343;PMS5003;35210;41.606;-87.602;2023-04-03T10:47:58;10.00;10.00;6.80
49343;PMS5003;35210;41.606;-87.602;2023-04-03T10:50:39;12.40;11.00;8.40
49343;PMS5003;35210;41.606;-87.602;2023-04-03T10:53:18;14.00;11.00;6.80
49343;PMS5003;35210;41.606;-87.602;2023-04-03T10:55:53;10.40;10.20;6.00
49343;PMS5003;35210;41.606;-87.602;2023-04-03T10:58:32;10.80;10.20;6.60
49343;PMS5003;35210;41.606;-87.602;2023-04-03T11:01:05;10.80;10.20;5.80
49343;PMS5003;35210;41.606;-87.602;2023-04-03T11:03:36;10.60;9.80;5.40
49343;PMS5003;35210;41.606;-87.602;2023-04-03T11:06:08;10.80;10.00;6.00
49343;PMS5003;35210;41.606;-87.602;2023-04-03T11:08:38;13.20;10.60;5.40
49343;PMS5003;35210;41.606;-87.602;2023-04-03T11:11:12;16.80;12.40;6.20
49343;PMS5003;35210;41.606;-87.602;2023-04-03T11:13:46;14.20;9.40;7.20
49343;PMS5003;35210;41.606;-87.602;2023-04-03T11:16:20;10.60;10.20;6.40
49343;PMS5003;35210;41.606;-87.602;2023-04-03T11:18:54;8.60;8.60;5.00
49343;PMS5003;35210;41.606;-87.602;2023-04-03T11:21:28;11.20;9.80;6.00
49343;PMS5003;35210;41.606;-87.602;2023-04-03T11:24:00;10.40;9.80;4.00
49343;PMS5003;35210;41.606;-87.602;2023-04-03T11:26:35;12.80;9.00;5.60
49343;PMS5003;35210;41.606;-87.602;2023-04-03T11:29:09;11.00;10.60;6.40
49343;PMS5003;35210;41.606;-87.602;2023-04-03T11:31:45;9.80;9.00;5.00
49343;PMS5003;35210;41.606;-87.602;2023-04-03T11:34:30;14.20;10.40;5.80
49343;PMS5003;35210;41.606;-87.602;2023-04-03T11:37:05;15.80;11.00;6.20
49343;PMS5003;35210;41.606;-87.602;2023-04-03T11:39:46;9.80;9.80;5.20
49343;PMS5003;35210;41.606;-87.602;2023-04-03T11:42:33;11.20;11.20;6.00
49343;PMS5003;35210;41.606;-87.602;2023-04-03T11:45:22;12.20;11.00;6.80
49343;PMS5003;35210;41.606;-87.602;2023-04-03T11:48:04;11.20;10.00;5.80
49343;PMS5003;35210;41.606;-87.602;2023-04-03T11:50:40;12.40;11.00;7.60
49343;PMS5003;35210;41.606;-87.602;2023-04-03T11:53:27;8.00;8.00;4.00
49343;PMS5003;35210;41.606;-87.602;2023-04-03T12:01:47;10.20;10.00;6.80
49343;PMS5003;35210;41.606;-87.602;2023-04-03T12:04:17;13.80;10.60;8.00
49343;PMS5003;35210;41.606;-87.602;2023-04-03T12:12:42;13.60;10.60;7.40
49343;PMS5003;35210;41.606;-87.602;2023-04-03T12:24:44;15.40;13.40;9.00
49343;PMS5003;35210;41.606;-87.602;2023-04-03T12:27:22;12.00;11.00;8.20
49343;PMS5003;35210;41.606;-87.602;2023-04-03T12:30:04;14.20;12.20;8.40
49343;PMS5003;35210;41.606;-87.602;2023-04-03T12:32:54;18.40;15.20;9.40
49343;PMS5003;35210;41.606;-87.602;2023-04-03T12:35:43;18.80;17.80;11.00
49343;PMS5003;35210;41.606;-87.602;2023-04-03T12:38:26;26.20;21.80;14.00
49343;PMS5003;35210;41.606;-87.602;2023-04-03T12:41:16;31.40;26.60;16.60
49343;PMS5003;35210;41.606;-87.602;2023-04-03T12:43:53;31.40;27.40;17.80
49343;PMS5003;35210;41.606;-87.602;2023-04-03T12:46:34;34.20;29.00;17.20
49343;PMS5003;35210;41.606;-87.602;2023-04-03T12:49:12;33.80;27.80;18.20
49343;PMS5003;35210;41.606;-87.602;2023-04-03T12:52:00;32.40;28.40;19.00
49343;PMS5003;35210;41.606;-87.602;2023-04-03T12:54:35;31.80;27.20;19.00
49343;PMS5003;35210;41.606;-87.602;2023-04-03T12:57:12;41.40;35.20;21.40
49343;PMS5003;35210;41.606;-87.602;2023-04-03T12:59:44;50.20;38.60;24.20
49343;PMS5003;35210;41.606;-87.602;2023-04-03T13:02:23;45.80;36.60;23.80
49343;PMS5003;35210;41.606;-87.602;2023-04-03T13:04:54;36.20;32.60;22.00
49343;PMS5003;35210;41.606;-87.602;2023-04-03T13:07:26;35.40;33.00;19.80
49343;PMS5003;35210;41.606;-87.602;2023-04-03T13:10:00;37.60;34.00;21.00
49343;PMS5003;35210;41.606;-87.602;2023-04-03T13:12:31;42.20;37.20;23.00
49343;PMS5003;35210;41.606;-87.602;2023-04-03T13:15:00;53.00;39.00;25.00
49343;PMS5003;35210;41.606;-87.602;2023-04-03T13:17:39;37.20;34.40;22.40
49343;PMS5003;35210;41.606;-87.602;2023-04-03T13:20:12;32.00;31.00;20.00
49343;PMS5003;35210;41.606;-87.602;2023-04-03T13:22:44;28.80;28.80;15.60
49343;PMS5003;35210;41.606;-87.602;2023-04-03T13:25:21;28.00;24.60;14.80
49343;PMS5003;35210;41.606;-87.602;2023-04-03T13:27:53;22.20;19.40;13.00
49343;PMS5003;35210;41.606;-87.602;2023-04-03T13:30:26;23.20;18.60;12.40
49343;PMS5003;35210;41.606;-87.602;2023-04-03T13:32:57;18.60;17.40;13.00
49343;PMS5003;35210;41.606;-87.602;2023-04-03T13:35:31;22.00;19.40;12.80
49343;PMS5003;35210;41.606;-87.602;2023-04-03T13:38:03;22.80;20.40;14.00
49343;PMS5003;35210;41.606;-87.602;2023-04-03T13:40:47;26.00;22.00;12.00
49343;PMS5003;35210;41.606;-87.602;2023-04-03T13:43:18;21.20;18.40;11.00
49343;PMS5003;35210;41.606;-87.602;2023-04-03T13:45:54;17.60;17.20;10.00
49343;PMS5003;35210;41.606;-87.602;2023-04-03T13:48:24;15.40;15.00;10.00
49343;PMS5003;35210;41.606;-87.602;2023-04-03T13:50:57;19.00;13.60;8.00
49343;PMS5003;35210;41.606;-87.602;2023-04-03T13:53:28;14.40;13.40;9.40
49343;PMS5003;35210;41.606;-87.602;2023-04-03T13:56:04;14.00;12.60;8.80
49343;PMS5003;35210;41.606;-87.602;2023-04-03T13:58:34;14.40;13.00;8.00
49343;PMS5003;35210;41.606;-87.602;2023-04-03T14:01:08;11.80;11.80;8.00
49343;PMS5003;35210;41.606;-87.602;2023-04-03T14:03:44;14.60;12.00;7.40
49343;PMS5003;35210;41.606;-87.602;2023-04-03T14:06:15;10.20;10.20;7.20
49343;PMS5003;35210;41.606;-87.602;2023-04-03T14:08:44;16.80;13.80;8.00
49343;PMS5003;35210;41.606;-87.602;2023-04-03T14:11:16;12.40;11.00;7.60
49343;PMS5003;35210;41.606;-87.602;2023-04-03T14:13:47;16.40;12.40;6.80
49343;PMS5003;35210;41.606;-87.602;2023-04-03T14:16:18;11.00;10.60;7.00
49343;PMS5003;35210;41.606;-87.602;2023-04-03T14:18:49;14.60;12.00;7.00
49343;PMS5003;35210;41.606;-87.602;2023-04-03T14:21:18;11.20;11.20;7.60
49343;PMS5003;35210;41.606;-87.602;2023-04-03T14:23:48;14.60;12.20;7.00
49343;PMS5003;35210;41.606;-87.602;2023-04-03T14:26:19;10.20;9.20;5.60
49343;PMS5003;35210;41.606;-87.602;2023-04-03T14:28:50;16.60;14.00;9.00
49343;PMS5003;35210;41.606;-87.602;2023-04-03T14:31:20;17.20;13.80;8.80
49343;PMS5003;35210;41.606;-87.602;2023-04-03T14:33:48;15.20;13.80;8.20
49343;PMS5003;35210;41.606;-87.602;2023-04-03T14:36:17;15.00;15.00;10.20
49343;PMS5003;35210;41.606;-87.602;2023-04-03T14:38:48;13.00;11.00;6.60
49343;PMS5003;35210;41.606;-87.602;2023-04-03T14:41:19;18.00;12.00;7.40